sensor_id;sensor_type;location;lat;lon;timestamp;temperature;humidity
44117;DHT22;29781;49.480;8.512;2023-07-13T00:01:13;22.90;97.30
44117;DHT22;29781;49.480;8.512;2023-07-13T00:03:38;22.90;97.10
44117;DHT22;29781;49.480;8.512;2023-07-13T00:06:07;22.70;97.20
44117;DHT22;29781;49.480;8.512;2023-07-13T00:08:33;22.80;97.40
44117;DHT22;29781;49.480;8.512;2023-07-13T00:10:59;22.90;97.10
44117;DHT22;29781;49.480;8.512;2023-07-13T00:13:25;22.70;97.40
44117;DHT22;29781;49.480;8.512;2023-07-13T00:15:50;22.60;97.60
44117;DHT22;29781;49.480;8.512;2023-07-13T00:18:16;22.70;97.10
44117;DHT22;29781;49.480;8.512;2023-07-13T00:20:42;22.60;97.30
44117;DHT22;29781;49.480;8.512;2023-07-13T00:23:08;22.60;97.50
44117;DHT22;29781;49.480;8.512;2023-07-13T00:25:33;22.70;97.30
44117;DHT22;29781;49.480;8.512;2023-07-13T00:28:00;22.50;97.80
44117;DHT22;29781;49.480;8.512;2023-07-13T00:30:26;22.50;97.80
44117;DHT22;29781;49.480;8.512;2023-07-13T00:32:51;22.60;97.70
44117;DHT22;29781;49.480;8.512;2023-07-13T00:35:17;22.50;97.70
44117;DHT22;29781;49.480;8.512;2023-07-13T00:37:43;22.40;97.80
44117;DHT22;29781;49.480;8.512;2023-07-13T00:40:11;22.20;98.30
44117;DHT22;29781;49.480;8.512;2023-07-13T00:42:37;22.20;98.10
44117;DHT22;29781;49.480;8.512;2023-07-13T00:45:07;22.20;98.10
44117;DHT22;29781;49.480;8.512;2023-07-13T00:47:33;22.20;98.20
44117;DHT22;29781;49.480;8.512;2023-07-13T00:49:59;22.20;98.00
44117;DHT22;29781;49.480;8.512;2023-07-13T00:52:25;22.20;98.20
44117;DHT22;29781;49.480;8.512;2023-07-13T00:54:51;22.40;98.40
44117;DHT22;29781;49.480;8.512;2023-07-13T00:57:19;22.40;98.20
44117;DHT22;29781;49.480;8.512;2023-07-13T00:59:48;22.40;98.10
44117;DHT22;29781;49.480;8.512;2023-07-13T01:02:15;22.30;98.10
44117;DHT22;29781;49.480;8.512;2023-07-13T01:04:41;22.30;98.20
44117;DHT22;29781;49.480;8.512;2023-07-13T01:07:10;22.20;98.30
44117;DHT22;29781;49.480;8.512;2023-07-13T01:09:37;22.30;98.20
44117;DHT22;29781;49.480;8.512;2023-07-13T01:12:02;22.20;98.30
44117;DHT22;29781;49.480;8.512;2023-07-13T01:14:28;22.10;98.40
44117;DHT22;29781;49.480;8.512;2023-07-13T01:16:54;22.00;98.70
44117;DHT22;29781;49.480;8.512;2023-07-13T01:19:35;21.90;99.00
44117;DHT22;29781;49.480;8.512;2023-07-13T01:22:03;21.80;99.10
44117;DHT22;29781;49.480;8.512;2023-07-13T01:24:28;21.70;99.40
44117;DHT22;29781;49.480;8.512;2023-07-13T01:26:54;21.70;99.60
44117;DHT22;29781;49.480;8.512;2023-07-13T01:29:20;21.80;99.40
44117;DHT22;29781;49.480;8.512;2023-07-13T01:31:46;21.90;99.30
44117;DHT22;29781;49.480;8.512;2023-07-13T01:34:12;21.90;99.20
44117;DHT22;29781;49.480;8.512;2023-07-13T01:36:37;21.80;99.30
44117;DHT22;29781;49.480;8.512;2023-07-13T01:39:03;21.90;99.40
44117;DHT22;29781;49.480;8.512;2023-07-13T01:41:28;21.90;99.30
44117;DHT22;29781;49.480;8.512;2023-07-13T01:43:54;21.90;99.40
44117;DHT22;29781;49.480;8.512;2023-07-13T01:46:19;21.70;99.50
44117;DHT22;29781;49.480;8.512;2023-07-13T01:48:45;21.60;99.90
44117;DHT22;29781;49.480;8.512;2023-07-13T01:51:10;21.50;99.90
44117;DHT22;29781;49.480;8.512;2023-07-13T01:53:36;21.50;99.90
44117;DHT22;29781;49.480;8.512;2023-07-13T01:56:03;21.50;99.90
44117;DHT22;29781;49.480;8.512;2023-07-13T01:58:28;21.50;99.90
44117;DHT22;29781;49.480;8.512;2023-07-13T02:00:54;21.40;99.90
44117;DHT22;29781;49.480;8.512;2023-07-13T02:03:19;21.40;99.90
44117;DHT22;29781;49.480;8.512;2023-07-13T02:05:45;21.40;99.90
44117;DHT22;29781;49.480;8.512;2023-07-13T02:08:11;21.30;99.90
44117;DHT22;29781;49.480;8.512;2023-07-13T02:10:37;21.20;99.90
44117;DHT22;29781;49.480;8.512;2023-07-13T02:13:05;21.20;99.90
44117;DHT22;29781;49.480;8.512;2023-07-13T02:15:31;21.30;99.90
44117;DHT22;29781;49.480;8.512;2023-07-13T02:17:57;21.50;99.90
44117;DHT22;29781;49.480;8.512;2023-07-13T02:20:24;21.40;99.90
44117;DHT22;29781;49.480;8.512;2023-07-13T02:22:49;21.40;99.90
44117;DHT22;29781;49.480;8.512;2023-07-13T02:25:15;21.20;99.90
44117;DHT22;29781;49.480;8.512;2023-07-13T02:27:41;21.00;99.90
44117;DHT22;29781;49.480;8.512;2023-07-13T02:30:06;20.90;99.90
44117;DHT22;29781;49.480;8.512;2023-07-13T02:32:32;20.90;99.90
44117;DHT22;29781;49.480;8.512;2023-07-13T02:34:59;20.90;99.90
44117;DHT22;29781;49.480;8.512;2023-07-13T02:37:24;20.90;99.90
44117;DHT22;29781;49.480;8.512;2023-07-13T02:39:50;21.00;99.90
44117;DHT22;29781;49.480;8.512;2023-07-13T02:42:16;20.90;99.90
44117;DHT22;29781;49.480;8.512;2023-07-13T02:44:41;20.90;99.90
44117;DHT22;29781;49.480;8.512;2023-07-13T02:47:07;20.70;99.90
44117;DHT22;29781;49.480;8.512;2023-07-13T02:49:32;20.70;99.90
44117;DHT22;29781;49.480;8.512;2023-07-13T02:51:58;21.00;99.90
44117;DHT22;29781;49.480;8.512;2023-07-13T02:54:23;20.80;99.90
44117;DHT22;29781;49.480;8.512;2023-07-13T02:56:49;20.90;99.90
44117;DHT22;29781;49.480;8.512;2023-07-13T02:59:14;20.70;99.90
44117;DHT22;29781;49.480;8.512;2023-07-13T03:01:40;20.70;99.90
44117;DHT22;29781;49.480;8.512;2023-07-13T03:04:06;20.70;99.90
44117;DHT22;29781;49.480;8.512;2023-07-13T03:06:32;20.70;99.90
44117;DHT22;29781;49.480;8.512;2023-07-13T03:08:58;20.50;99.90
44117;DHT22;29781;49.480;8.512;2023-07-13T03:11:25;20.40;99.90
44117;DHT22;29781;49.480;8.512;2023-07-13T03:13:51;20.20;99.90
44117;DHT22;29781;49.480;8.512;2023-07-13T03:16:17;20.20;99.90
44117;DHT22;29781;49.480;8.512;2023-07-13T03:18:43;20.40;99.90
44117;DHT22;29781;49.480;8.512;2023-07-13T03:21:09;20.20;99.90
44117;DHT22;29781;49.480;8.512;2023-07-13T03:23:34;20.30;99.90
44117;DHT22;29781;49.480;8.512;2023-07-13T03:26:08;20.20;99.90
44117;DHT22;29781;49.480;8.512;2023-07-13T03:28:34;20.10;99.90
44117;DHT22;29781;49.480;8.512;2023-07-13T03:31:05;19.90;99.90
44117;DHT22;29781;49.480;8.512;2023-07-13T03:33:31;19.70;99.90
44117;DHT22;29781;49.480;8.512;2023-07-13T03:35:57;19.40;99.90
44117;DHT22;29781;49.480;8.512;2023-07-13T03:38:22;19.20;99.90
44117;DHT22;29781;49.480;8.512;2023-07-13T03:40:48;18.90;99.90
44117;DHT22;29781;49.480;8.512;2023-07-13T03:43:14;18.90;99.90
44117;DHT22;29781;49.480;8.512;2023-07-13T03:45:40;19.10;99.90
44117;DHT22;29781;49.480;8.512;2023-07-13T03:48:06;19.40;99.90
44117;DHT22;29781;49.480;8.512;2023-07-13T03:50:31;19.70;99.90
44117;DHT22;29781;49.480;8.512;2023-07-13T03:52:58;19.90;99.90
44117;DHT22;29781;49.480;8.512;2023-07-13T03:55:23;19.60;99.90
44117;DHT22;29781;49.480;8.512;2023-07-13T03:57:59;19.30;99.90
44117;DHT22;29781;49.480;8.512;2023-07-13T04:00:25;19.10;99.90
44117;DHT22;29781;49.480;8.512;2023-07-13T04:02:51;19.20;99.90
44117;DHT22;29781;49.480;8.512;2023-07-13T04:05:17;19.40;99.90
44117;DHT22;29781;49.480;8.512;2023-07-13T04:07:42;19.50;99.90
44117;DHT22;29781;49.480;8.512;2023-07-13T04:10:08;19.50;99.90
44117;DHT22;29781;49.480;8.512;2023-07-13T04:12:34;19.60;99.90
44117;DHT22;29781;49.480;8.512;2023-07-13T04:14:59;19.60;99.90
44117;DHT22;29781;49.480;8.512;2023-07-13T04:17:25;19.40;99.90
44117;DHT22;29781;49.480;8.512;2023-07-13T04:19:50;19.50;99.90
44117;DHT22;29781;49.480;8.512;2023-07-13T04:22:16;19.50;99.90
44117;DHT22;29781;49.480;8.512;2023-07-13T04:24:41;19.30;99.90
44117;DHT22;29781;49.480;8.512;2023-07-13T04:27:07;19.20;99.90
44117;DHT22;29781;49.480;8.512;2023-07-13T04:29:33;18.90;99.90
44117;DHT22;29781;49.480;8.512;2023-07-13T04:31:58;18.60;99.90
44117;DHT22;29781;49.480;8.512;2023-07-13T04:34:24;18.50;99.90
44117;DHT22;29781;49.480;8.512;2023-07-13T04:36:50;18.70;99.90
44117;DHT22;29781;49.480;8.512;2023-07-13T04:39:15;18.80;99.90
44117;DHT22;29781;49.480;8.512;2023-07-13T04:41:41;18.90;99.90
44117;DHT22;29781;49.480;8.512;2023-07-13T04:44:07;19.00;99.90
44117;DHT22;29781;49.480;8.512;2023-07-13T04:46:32;19.30;99.90
44117;DHT22;29781;49.480;8.512;2023-07-13T04:48:58;19.70;99.90
44117;DHT22;29781;49.480;8.512;2023-07-13T04:51:24;19.60;99.90
44117;DHT22;29781;49.480;8.512;2023-07-13T04:53:50;19.40;99.90
44117;DHT22;29781;49.480;8.512;2023-07-13T04:56:15;19.40;99.90
44117;DHT22;29781;49.480;8.512;2023-07-13T04:58:41;19.60;99.90
44117;DHT22;29781;49.480;8.512;2023-07-13T05:01:06;19.70;99.90
44117;DHT22;29781;49.480;8.512;2023-07-13T05:03:33;19.70;99.90
44117;DHT22;29781;49.480;8.512;2023-07-13T05:06:02;20.10;99.90
44117;DHT22;29781;49.480;8.512;2023-07-13T05:08:28;20.50;99.90
44117;DHT22;29781;49.480;8.512;2023-07-13T05:10:53;20.70;99.90
44117;DHT22;29781;49.480;8.512;2023-07-13T05:13:19;20.60;99.90
44117;DHT22;29781;49.480;8.512;2023-07-13T05:15:45;20.20;99.90
44117;DHT22;29781;49.480;8.512;2023-07-13T05:18:11;19.70;99.90
44117;DHT22;29781;49.480;8.512;2023-07-13T05:20:36;19.30;99.90
44117;DHT22;29781;49.480;8.512;2023-07-13T05:23:02;19.10;99.90
44117;DHT22;29781;49.480;8.512;2023-07-13T05:25:27;19.00;99.90
44117;DHT22;29781;49.480;8.512;2023-07-13T05:27:53;19.10;99.90
44117;DHT22;29781;49.480;8.512;2023-07-13T05:30:18;19.20;99.90
44117;DHT22;29781;49.480;8.512;2023-07-13T05:32:44;19.30;99.90
44117;DHT22;29781;49.480;8.512;2023-07-13T05:35:09;19.30;99.90
44117;DHT22;29781;49.480;8.512;2023-07-13T05:37:36;19.60;99.90
44117;DHT22;29781;49.480;8.512;2023-07-13T05:40:02;19.80;99.90
44117;DHT22;29781;49.480;8.512;2023-07-13T05:42:27;20.00;99.90
44117;DHT22;29781;49.480;8.512;2023-07-13T05:44:53;20.00;99.90
44117;DHT22;29781;49.480;8.512;2023-07-13T05:47:19;19.90;99.90
44117;DHT22;29781;49.480;8.512;2023-07-13T05:49:44;19.80;99.90
44117;DHT22;29781;49.480;8.512;2023-07-13T05:52:09;19.50;99.90
44117;DHT22;29781;49.480;8.512;2023-07-13T05:54:35;19.40;99.90
44117;DHT22;29781;49.480;8.512;2023-07-13T05:57:01;19.40;99.90
44117;DHT22;29781;49.480;8.512;2023-07-13T05:59:26;19.30;99.90
44117;DHT22;29781;49.480;8.512;2023-07-13T06:01:52;19.20;99.90
44117;DHT22;29781;49.480;8.512;2023-07-13T06:04:18;19.10;99.90
44117;DHT22;29781;49.480;8.512;2023-07-13T06:06:43;19.00;99.90
44117;DHT22;29781;49.480;8.512;2023-07-13T06:09:09;18.90;99.90
44117;DHT22;29781;49.480;8.512;2023-07-13T06:11:34;18.80;99.90
44117;DHT22;29781;49.480;8.512;2023-07-13T06:14:00;18.70;99.90
44117;DHT22;29781;49.480;8.512;2023-07-13T06:16:26;18.70;99.90
44117;DHT22;29781;49.480;8.512;2023-07-13T06:18:51;18.60;99.90
44117;DHT22;29781;49.480;8.512;2023-07-13T06:21:19;18.70;99.90
44117;DHT22;29781;49.480;8.512;2023-07-13T06:23:46;18.70;99.90
44117;DHT22;29781;49.480;8.512;2023-07-13T06:26:16;18.80;99.90
44117;DHT22;29781;49.480;8.512;2023-07-13T06:28:42;18.90;99.90
44117;DHT22;29781;49.480;8.512;2023-07-13T06:31:10;19.10;99.90
44117;DHT22;29781;49.480;8.512;2023-07-13T06:33:36;19.20;99.90
44117;DHT22;29781;49.480;8.512;2023-07-13T06:36:03;19.50;99.90
44117;DHT22;29781;49.480;8.512;2023-07-13T06:38:29;19.50;99.90
44117;DHT22;29781;49.480;8.512;2023-07-13T06:40:55;19.70;99.90
44117;DHT22;29781;49.480;8.512;2023-07-13T06:43:20;19.70;99.90
44117;DHT22;29781;49.480;8.512;2023-07-13T06:45:47;19.80;99.90
44117;DHT22;29781;49.480;8.512;2023-07-13T06:48:15;19.60;99.90
44117;DHT22;29781;49.480;8.512;2023-07-13T06:50:41;19.70;99.90
44117;DHT22;29781;49.480;8.512;2023-07-13T06:53:07;19.90;99.90
44117;DHT22;29781;49.480;8.512;2023-07-13T06:55:32;20.20;99.90
44117;DHT22;29781;49.480;8.512;2023-07-13T06:57:58;20.60;99.90
44117;DHT22;29781;49.480;8.512;2023-07-13T07:00:23;21.00;99.90
44117;DHT22;29781;49.480;8.512;2023-07-13T07:02:49;20.80;99.90
44117;DHT22;29781;49.480;8.512;2023-07-13T07:05:14;20.70;99.90
44117;DHT22;29781;49.480;8.512;2023-07-13T07:07:40;20.40;99.90
44117;DHT22;29781;49.480;8.512;2023-07-13T07:10:06;20.40;99.90
44117;DHT22;29781;49.480;8.512;2023-07-13T07:12:32;20.40;99.90
44117;DHT22;29781;49.480;8.512;2023-07-13T07:14:57;20.50;99.90
44117;DHT22;29781;49.480;8.512;2023-07-13T07:17:23;20.60;99.90
44117;DHT22;29781;49.480;8.512;2023-07-13T07:19:48;21.10;99.90
44117;DHT22;29781;49.480;8.512;2023-07-13T07:22:14;21.20;99.90
44117;DHT22;29781;49.480;8.512;2023-07-13T07:24:39;21.40;99.90
44117;DHT22;29781;49.480;8.512;2023-07-13T07:27:05;21.30;99.90
44117;DHT22;29781;49.480;8.512;2023-07-13T07:29:31;21.50;99.90
44117;DHT22;29781;49.480;8.512;2023-07-13T07:31:56;21.70;99.90
44117;DHT22;29781;49.480;8.512;2023-07-13T07:34:21;21.90;99.90
44117;DHT22;29781;49.480;8.512;2023-07-13T07:36:47;22.10;99.90
44117;DHT22;29781;49.480;8.512;2023-07-13T07:39:13;22.20;99.90
44117;DHT22;29781;49.480;8.512;2023-07-13T07:41:38;22.20;99.90
44117;DHT22;29781;49.480;8.512;2023-07-13T07:44:04;22.30;99.90
44117;DHT22;29781;49.480;8.512;2023-07-13T07:46:32;22.40;99.90
44117;DHT22;29781;49.480;8.512;2023-07-13T07:48:57;22.60;99.90
44117;DHT22;29781;49.480;8.512;2023-07-13T07:51:23;22.70;99.90
44117;DHT22;29781;49.480;8.512;2023-07-13T07:53:48;22.70;99.90
44117;DHT22;29781;49.480;8.512;2023-07-13T07:56:14;22.90;99.90
44117;DHT22;29781;49.480;8.512;2023-07-13T07:58:41;23.10;99.90
44117;DHT22;29781;49.480;8.512;2023-07-13T08:01:07;23.10;99.90
44117;DHT22;29781;49.480;8.512;2023-07-13T08:03:33;23.10;99.90
44117;DHT22;29781;49.480;8.512;2023-07-13T08:05:58;23.10;99.90
44117;DHT22;29781;49.480;8.512;2023-07-13T08:08:24;23.10;99.90
44117;DHT22;29781;49.480;8.512;2023-07-13T08:10:50;23.40;99.80
44117;DHT22;29781;49.480;8.512;2023-07-13T08:13:16;23.60;99.20
44117;DHT22;29781;49.480;8.512;2023-07-13T08:15:41;23.50;99.50
44117;DHT22;29781;49.480;8.512;2023-07-13T08:18:07;23.50;99.90
44117;DHT22;29781;49.480;8.512;2023-07-13T08:20:37;23.40;99.90
44117;DHT22;29781;49.480;8.512;2023-07-13T08:23:03;23.60;99.70
44117;DHT22;29781;49.480;8.512;2023-07-13T08:25:29;23.40;99.70
44117;DHT22;29781;49.480;8.512;2023-07-13T08:27:54;23.30;99.70
44117;DHT22;29781;49.480;8.512;2023-07-13T08:30:20;23.30;99.80
44117;DHT22;29781;49.480;8.512;2023-07-13T08:32:45;23.20;99.90
44117;DHT22;29781;49.480;8.512;2023-07-13T08:35:11;23.50;99.90
44117;DHT22;29781;49.480;8.512;2023-07-13T08:37:37;23.70;99.80
44117;DHT22;29781;49.480;8.512;2023-07-13T08:40:02;23.50;99.60
44117;DHT22;29781;49.480;8.512;2023-07-13T08:42:39;23.70;99.50
44117;DHT22;29781;49.480;8.512;2023-07-13T08:45:19;23.70;99.10
44117;DHT22;29781;49.480;8.512;2023-07-13T08:48:11;23.80;98.60
44117;DHT22;29781;49.480;8.512;2023-07-13T08:53:42;24.00;99.20
44117;DHT22;29781;49.480;8.512;2023-07-13T08:56:17;24.30;98.70
44117;DHT22;29781;49.480;8.512;2023-07-13T08:58:45;24.30;98.80
44117;DHT22;29781;49.480;8.512;2023-07-13T09:04:09;24.50;98.90
44117;DHT22;29781;49.480;8.512;2023-07-13T09:07:24;25.00;97.50
44117;DHT22;29781;49.480;8.512;2023-07-13T09:10:04;24.90;97.20
44117;DHT22;29781;49.480;8.512;2023-07-13T09:12:58;25.00;97.40
44117;DHT22;29781;49.480;8.512;2023-07-13T09:15:34;25.40;96.80
44117;DHT22;29781;49.480;8.512;2023-07-13T09:18:08;25.50;96.40
44117;DHT22;29781;49.480;8.512;2023-07-13T09:23:25;26.10;96.00
44117;DHT22;29781;49.480;8.512;2023-07-13T09:25:54;25.80;96.00
44117;DHT22;29781;49.480;8.512;2023-07-13T09:28:28;25.60;96.10
44117;DHT22;29781;49.480;8.512;2023-07-13T09:31:03;25.60;96.10
44117;DHT22;29781;49.480;8.512;2023-07-13T09:33:29;25.40;95.90
44117;DHT22;29781;49.480;8.512;2023-07-13T09:35:57;25.00;96.20
44117;DHT22;29781;49.480;8.512;2023-07-13T09:38:24;24.90;96.60
44117;DHT22;29781;49.480;8.512;2023-07-13T09:43:28;25.10;96.50
44117;DHT22;29781;49.480;8.512;2023-07-13T09:45:57;25.10;97.10
44117;DHT22;29781;49.480;8.512;2023-07-13T09:48:22;25.00;97.90
44117;DHT22;29781;49.480;8.512;2023-07-13T09:50:54;25.00;97.70
44117;DHT22;29781;49.480;8.512;2023-07-13T09:53:21;25.00;97.80
44117;DHT22;29781;49.480;8.512;2023-07-13T09:55:48;25.00;97.80
44117;DHT22;29781;49.480;8.512;2023-07-13T09:58:18;25.10;96.70
44117;DHT22;29781;49.480;8.512;2023-07-13T10:00:55;25.20;96.40
44117;DHT22;29781;49.480;8.512;2023-07-13T10:03:30;25.20;96.50
44117;DHT22;29781;49.480;8.512;2023-07-13T10:06:15;25.10;95.50
44117;DHT22;29781;49.480;8.512;2023-07-13T10:08:40;25.00;95.40
44117;DHT22;29781;49.480;8.512;2023-07-13T10:11:12;24.80;96.00
44117;DHT22;29781;49.480;8.512;2023-07-13T10:14:01;25.00;96.20
44117;DHT22;29781;49.480;8.512;2023-07-13T10:16:33;24.90;96.10
44117;DHT22;29781;49.480;8.512;2023-07-13T10:21:53;24.60;96.60
44117;DHT22;29781;49.480;8.512;2023-07-13T10:24:24;24.60;96.50
44117;DHT22;29781;49.480;8.512;2023-07-13T10:26:52;24.30;96.90
44117;DHT22;29781;49.480;8.512;2023-07-13T10:29:22;24.50;96.10
44117;DHT22;29781;49.480;8.512;2023-07-13T10:31:49;24.60;95.60
44117;DHT22;29781;49.480;8.512;2023-07-13T10:34:15;24.40;95.70
44117;DHT22;29781;49.480;8.512;2023-07-13T10:36:44;24.50;95.30
44117;DHT22;29781;49.480;8.512;2023-07-13T10:39:19;24.40;95.20
44117;DHT22;29781;49.480;8.512;2023-07-13T10:41:48;24.30;95.50
44117;DHT22;29781;49.480;8.512;2023-07-13T10:44:23;24.40;95.90
44117;DHT22;29781;49.480;8.512;2023-07-13T10:46:53;24.80;95.50
44117;DHT22;29781;49.480;8.512;2023-07-13T10:49:20;25.00;95.00
44117;DHT22;29781;49.480;8.512;2023-07-13T10:51:47;25.10;94.00
44117;DHT22;29781;49.480;8.512;2023-07-13T10:54:17;25.10;94.00
44117;DHT22;29781;49.480;8.512;2023-07-13T10:56:44;25.30;94.10
44117;DHT22;29781;49.480;8.512;2023-07-13T10:59:26;25.50;93.90
44117;DHT22;29781;49.480;8.512;2023-07-13T11:02:05;25.60;93.00
44117;DHT22;29781;49.480;8.512;2023-07-13T11:04:48;25.70;92.50
44117;DHT22;29781;49.480;8.512;2023-07-13T11:07:24;25.40;91.50
44117;DHT22;29781;49.480;8.512;2023-07-13T11:09:52;25.40;91.70
44117;DHT22;29781;49.480;8.512;2023-07-13T11:19:54;25.90;91.60
44117;DHT22;29781;49.480;8.512;2023-07-13T11:22:49;25.90;92.10
44117;DHT22;29781;49.480;8.512;2023-07-13T11:25:26;25.90;91.30
44117;DHT22;29781;49.480;8.512;2023-07-13T11:30:59;25.50;92.20
44117;DHT22;29781;49.480;8.512;2023-07-13T11:36:05;25.30;91.70
44117;DHT22;29781;49.480;8.512;2023-07-13T11:38:42;25.50;91.80
44117;DHT22;29781;49.480;8.512;2023-07-13T11:41:19;25.70;91.50
44117;DHT22;29781;49.480;8.512;2023-07-13T11:43:50;25.60;91.40
44117;DHT22;29781;49.480;8.512;2023-07-13T11:46:21;25.60;91.40
44117;DHT22;29781;49.480;8.512;2023-07-13T11:48:48;25.50;91.40
44117;DHT22;29781;49.480;8.512;2023-07-13T11:51:27;25.60;91.90
44117;DHT22;29781;49.480;8.512;2023-07-13T11:53:55;25.70;91.70
44117;DHT22;29781;49.480;8.512;2023-07-13T11:56:22;25.50;91.80
44117;DHT22;29781;49.480;8.512;2023-07-13T11:58:53;25.60;92.10
44117;DHT22;29781;49.480;8.512;2023-07-13T12:01:22;25.90;91.00
44117;DHT22;29781;49.480;8.512;2023-07-13T12:03:49;26.00;91.10
44117;DHT22;29781;49.480;8.512;2023-07-13T12:06:32;26.00;90.20
44117;DHT22;29781;49.480;8.512;2023-07-13T12:09:03;26.00;88.10
44117;DHT22;29781;49.480;8.512;2023-07-13T12:11:38;26.10;88.10
44117;DHT22;29781;49.480;8.512;2023-07-13T12:14:05;26.20;88.60
44117;DHT22;29781;49.480;8.512;2023-07-13T12:16:32;26.20;89.50
44117;DHT22;29781;49.480;8.512;2023-07-13T12:18:59;26.10;89.90
44117;DHT22;29781;49.480;8.512;2023-07-13T12:21:33;26.10;89.70
44117;DHT22;29781;49.480;8.512;2023-07-13T12:24:00;26.00;88.90
44117;DHT22;29781;49.480;8.512;2023-07-13T12:26:28;25.90;90.70
44117;DHT22;29781;49.480;8.512;2023-07-13T12:28:56;25.70;90.80
44117;DHT22;29781;49.480;8.512;2023-07-13T12:31:43;25.70;91.10
44117;DHT22;29781;49.480;8.512;2023-07-13T12:36:41;25.60;91.30
44117;DHT22;29781;49.480;8.512;2023-07-13T12:39:17;25.60;91.30
44117;DHT22;29781;49.480;8.512;2023-07-13T12:41:44;25.80;90.80
44117;DHT22;29781;49.480;8.512;2023-07-13T12:44:15;25.80;91.20
44117;DHT22;29781;49.480;8.512;2023-07-13T12:47:02;25.80;91.00
44117;DHT22;29781;49.480;8.512;2023-07-13T12:49:32;25.60;90.60
44117;DHT22;29781;49.480;8.512;2023-07-13T12:52:02;25.70;90.90
44117;DHT22;29781;49.480;8.512;2023-07-13T12:54:29;25.80;90.70
44117;DHT22;29781;49.480;8.512;2023-07-13T12:56:55;25.90;89.60
44117;DHT22;29781;49.480;8.512;2023-07-13T12:59:24;25.80;90.00
44117;DHT22;29781;49.480;8.512;2023-07-13T13:01:51;25.90;89.20
44117;DHT22;29781;49.480;8.512;2023-07-13T13:04:19;25.80;89.40
44117;DHT22;29781;49.480;8.512;2023-07-13T13:06:47;25.70;89.50
44117;DHT22;29781;49.480;8.512;2023-07-13T13:09:16;25.50;89.70
44117;DHT22;29781;49.480;8.512;2023-07-13T13:11:42;25.50;90.10
44117;DHT22;29781;49.480;8.512;2023-07-13T13:14:08;25.50;90.00
44117;DHT22;29781;49.480;8.512;2023-07-13T13:16:52;25.60;89.70
44117;DHT22;29781;49.480;8.512;2023-07-13T13:19:24;25.70;90.30
44117;DHT22;29781;49.480;8.512;2023-07-13T13:21:51;25.80;90.00
44117;DHT22;29781;49.480;8.512;2023-07-13T13:24:19;25.90;90.40
44117;DHT22;29781;49.480;8.512;2023-07-13T13:26:45;25.80;90.30
44117;DHT22;29781;49.480;8.512;2023-07-13T13:29:13;25.80;90.70
44117;DHT22;29781;49.480;8.512;2023-07-13T13:31:39;25.90;90.80
44117;DHT22;29781;49.480;8.512;2023-07-13T13:34:11;25.90;90.40
44117;DHT22;29781;49.480;8.512;2023-07-13T13:36:37;25.80;90.10
44117;DHT22;29781;49.480;8.512;2023-07-13T13:39:14;25.60;90.00
44117;DHT22;29781;49.480;8.512;2023-07-13T13:41:42;25.60;90.00
44117;DHT22;29781;49.480;8.512;2023-07-13T13:44:09;25.60;90.10
44117;DHT22;29781;49.480;8.512;2023-07-13T13:46:35;25.60;89.70
44117;DHT22;29781;49.480;8.512;2023-07-13T13:49:01;25.70;89.60
44117;DHT22;29781;49.480;8.512;2023-07-13T13:51:27;25.80;90.00
44117;DHT22;29781;49.480;8.512;2023-07-13T13:53:54;25.90;89.20
44117;DHT22;29781;49.480;8.512;2023-07-13T13:56:20;26.10;88.40
44117;DHT22;29781;49.480;8.512;2023-07-13T13:58:45;26.10;88.60
44117;DHT22;29781;49.480;8.512;2023-07-13T14:01:20;26.10;89.50
44117;DHT22;29781;49.480;8.512;2023-07-13T14:03:46;26.20;90.20
44117;DHT22;29781;49.480;8.512;2023-07-13T14:06:14;26.30;90.00
44117;DHT22;29781;49.480;8.512;2023-07-13T14:08:41;26.30;90.40
44117;DHT22;29781;49.480;8.512;2023-07-13T14:11:13;26.20;90.50
44117;DHT22;29781;49.480;8.512;2023-07-13T14:13:43;26.10;90.90
44117;DHT22;29781;49.480;8.512;2023-07-13T14:16:12;26.10;91.10
44117;DHT22;29781;49.480;8.512;2023-07-13T14:18:38;26.00;91.40
44117;DHT22;29781;49.480;8.512;2023-07-13T14:21:16;25.80;91.30
44117;DHT22;29781;49.480;8.512;2023-07-13T14:23:44;25.70;90.90
44117;DHT22;29781;49.480;8.512;2023-07-13T14:26:16;25.60;91.40
44117;DHT22;29781;49.480;8.512;2023-07-13T14:28:45;25.60;91.70
44117;DHT22;29781;49.480;8.512;2023-07-13T14:31:13;25.60;91.50
44117;DHT22;29781;49.480;8.512;2023-07-13T14:33:38;25.50;91.50
44117;DHT22;29781;49.480;8.512;2023-07-13T14:36:35;25.60;91.20
44117;DHT22;29781;49.480;8.512;2023-07-13T14:39:14;25.80;91.60
44117;DHT22;29781;49.480;8.512;2023-07-13T14:41:40;26.00;91.00
44117;DHT22;29781;49.480;8.512;2023-07-13T14:44:15;26.00;91.00
44117;DHT22;29781;49.480;8.512;2023-07-13T14:46:41;26.00;91.20
44117;DHT22;29781;49.480;8.512;2023-07-13T14:51:45;26.00;91.00
44117;DHT22;29781;49.480;8.512;2023-07-13T14:54:10;26.00;90.50
44117;DHT22;29781;49.480;8.512;2023-07-13T14:56:37;26.10;90.60
44117;DHT22;29781;49.480;8.512;2023-07-13T14:59:02;26.00;90.80
44117;DHT22;29781;49.480;8.512;2023-07-13T15:01:28;26.30;90.00
44117;DHT22;29781;49.480;8.512;2023-07-13T15:03:54;26.10;90.40
44117;DHT22;29781;49.480;8.512;2023-07-13T15:06:19;26.00;90.30
44117;DHT22;29781;49.480;8.512;2023-07-13T15:08:46;26.00;90.30
44117;DHT22;29781;49.480;8.512;2023-07-13T15:11:12;26.00;90.10
44117;DHT22;29781;49.480;8.512;2023-07-13T15:13:39;25.80;90.10
44117;DHT22;29781;49.480;8.512;2023-07-13T15:16:13;25.80;90.30
44117;DHT22;29781;49.480;8.512;2023-07-13T15:18:40;25.90;90.50
44117;DHT22;29781;49.480;8.512;2023-07-13T15:21:13;26.10;90.10
44117;DHT22;29781;49.480;8.512;2023-07-13T15:23:40;26.20;90.40
44117;DHT22;29781;49.480;8.512;2023-07-13T15:26:11;26.30;88.50
44117;DHT22;29781;49.480;8.512;2023-07-13T15:28:37;26.00;87.80
44117;DHT22;29781;49.480;8.512;2023-07-13T15:31:24;25.90;88.30
44117;DHT22;29781;49.480;8.512;2023-07-13T15:33:51;25.80;88.80
44117;DHT22;29781;49.480;8.512;2023-07-13T15:36:19;25.80;89.00
44117;DHT22;29781;49.480;8.512;2023-07-13T15:38:45;25.70;89.50
44117;DHT22;29781;49.480;8.512;2023-07-13T15:41:26;25.70;90.40
44117;DHT22;29781;49.480;8.512;2023-07-13T15:43:54;25.80;90.30
44117;DHT22;29781;49.480;8.512;2023-07-13T15:46:21;25.90;90.20
44117;DHT22;29781;49.480;8.512;2023-07-13T15:48:52;26.00;90.10
44117;DHT22;29781;49.480;8.512;2023-07-13T15:51:24;25.90;90.00
44117;DHT22;29781;49.480;8.512;2023-07-13T15:53:52;25.80;89.80
44117;DHT22;29781;49.480;8.512;2023-07-13T15:56:24;25.70;89.60
44117;DHT22;29781;49.480;8.512;2023-07-13T15:58:51;25.60;90.00
44117;DHT22;29781;49.480;8.512;2023-07-13T16:01:17;25.70;89.50
44117;DHT22;29781;49.480;8.512;2023-07-13T16:03:44;25.80;89.40
44117;DHT22;29781;49.480;8.512;2023-07-13T16:06:20;25.80;89.50
44117;DHT22;29781;49.480;8.512;2023-07-13T16:08:48;25.80;90.10